Donna, Texas
Current Conditions -  °F | °C
As of 1:15 AM on Thursday 18 Dec 2014 (Local Time) from KT65 Reporting Station
Overcast Overcast  
Wind Chill: 71°   Ceiling: 1400
Heat Index: 71°   Visibility: 10mi
Dew Point: 66°   Wind: 6mph
Humidity: 86%   Direction: 160°SSE
Pressure: 30.01"   Gusts: NA
Location:  26.17°N, 98.04°W
Report Text: KT65 180715Z AUTO 16005KT 10SM OVC014 22/19 A3001 RMK AO2 T02160191
Loading
Personal Weather Stations






























Interactive Weather Map New forecast layout! Learn more

10-Day Weather Forecast

Advertisements
Track Severe Weather on mobile